Time;durP1;ratioP1;P1;durP2;ratioP2;P2;SDS_P1;SDS_P2;PMS_P1;PMS_P2;Temp;Humidity;BMP_temperature;BMP_pressure;BME280_temperature;BME280_humidity;BME280_pressure;Samples;Min_cycle;Max_cycle;Signal;HPM_P1;HPM_P2
2023/01/19 00:01:41;;;;;;;33.97;23.33;;;;;;;;;;4934314;29;20056;-83
2023/01/19 00:04:08;;;;;;;29.08;22.02;;;;;;;;;;4930999;29;20063;-82
2023/01/19 00:06:37;;;;;;;28.77;18.98;;;;;;;;;;4947932;28;20410;-83
2023/01/19 00:09:04;;;;;;;23.65;18.95;;;;;;;;;;4929428;29;20051;-83
2023/01/19 00:11:32;;;;;;;27.92;22.85;;;;;;;;;;4934335;29;20055;-83
2023/01/19 00:14:01;;;;;;;23.23;19.88;;;;;;;;;;4921400;29;20054;-83
2023/01/19 00:16:28;;;;;;;29.30;23.08;;;;;;;;;;4931981;29;20047;-83
2023/01/19 00:18:56;;;;;;;31.75;23.52;;;;;;;;;;4932632;29;20071;-83
2023/01/19 00:21:23;;;;;;;23.98;21.52;;;;;;;;;;4932910;29;20044;-83
2023/01/19 00:23:52;;;;;;;28.00;20.73;;;;;;;;;;4931185;29;20076;-83
2023/01/19 00:26:21;;;;;;;26.48;20.08;;;;;;;;;;4930434;29;20056;-83
2023/01/19 00:28:49;;;;;;;25.00;18.65;;;;;;;;;;4947244;28;20052;-83
2023/01/19 00:31:20;;;;;;;29.50;20.77;;;;;;;;;;4914048;29;20070;-83
2023/01/19 00:33:51;;;;;;;26.00;21.50;;;;;;;;;;4931192;29;20051;-83
2023/01/19 00:36:19;;;;;;;25.98;18.73;;;;;;;;;;4929951;29;20146;-83
2023/01/19 00:38:48;;;;;;;27.60;17.85;;;;;;;;;;4911992;29;20055;-83
2023/01/19 00:41:17;;;;;;;25.10;22.00;;;;;;;;;;4928312;29;20036;-83
2023/01/19 00:43:44;;;;;;;23.58;20.90;;;;;;;;;;4915970;29;20063;-83
2023/01/19 00:46:14;;;;;;;28.10;21.17;;;;;;;;;;4933417;29;20043;-82
2023/01/19 00:48:41;;;;;;;25.23;20.50;;;;;;;;;;4950157;23;20048;-79
2023/01/19 00:51:11;;;;;;;29.80;18.25;;;;;;;;;;4930223;29;20047;-80
2023/01/19 00:53:42;;;;;;;23.67;18.08;;;;;;;;;;4931887;29;20047;-80
2023/01/19 00:56:12;;;;;;;31.65;21.05;;;;;;;;;;4917344;29;20062;-80
2023/01/19 00:58:41;;;;;;;27.13;21.05;;;;;;;;;;4932866;29;20055;-80
2023/01/19 01:01:08;;;;;;;33.75;23.17;;;;;;;;;;4932079;29;20058;-80
2023/01/19 01:03:38;;;;;;;26.55;20.00;;;;;;;;;;4914829;29;20395;-80
2023/01/19 01:06:07;;;;;;;31.30;23.10;;;;;;;;;;4932042;29;20048;-80
2023/01/19 01:08:34;;;;;;;40.72;21.92;;;;;;;;;;4906102;29;20553;-80
2023/01/19 01:11:01;;;;;;;26.90;20.20;;;;;;;;;;4924134;29;20532;-80
2023/01/19 01:13:29;;;;;;;29.67;23.77;;;;;;;;;;4928849;29;20048;-80
2023/01/19 01:15:57;;;;;;;25.92;20.60;;;;;;;;;;4932270;29;20043;-80
2023/01/19 01:22:31;;;;;;;;;;;;;;;;;;4937121;28;20248;-80
2023/01/19 01:24:58;;;;;;;27.40;20.15;;;;;;;;;;4930513;29;19930;-80
2023/01/19 01:27:25;;;;;;;31.77;23.45;;;;;;;;;;4927066;29;20063;-80
2023/01/19 01:29:57;;;;;;;29.65;22.42;;;;;;;;;;4912840;29;20060;-80
2023/01/19 01:32:26;;;;;;;27.27;21.60;;;;;;;;;;4928350;29;20063;-80
2023/01/19 01:34:55;;;;;;;32.35;24.45;;;;;;;;;;4929603;29;20059;-80
2023/01/19 01:37:22;;;;;;;31.55;24.15;;;;;;;;;;4934147;29;20418;-80
2023/01/19 01:39:50;;;;;;;34.83;25.63;;;;;;;;;;4928823;29;20193;-80
2023/01/19 01:42:24;;;;;;;30.75;24.67;;;;;;;;;;4915601;29;20058;-80
2023/01/19 01:44:53;;;;;;;25.98;21.58;;;;;;;;;;4931070;29;20064;-80
2023/01/19 01:47:32;;;;;;;28.95;22.95;;;;;;;;;;4917218;29;21550;-80
2023/01/19 01:50:07;;;;;;;27.23;22.83;;;;;;;;;;4927232;29;20048;-80
2023/01/19 01:52:37;;;;;;;29.33;22.92;;;;;;;;;;4930872;29;20040;-80
2023/01/19 01:55:07;;;;;;;26.42;21.55;;;;;;;;;;4912469;29;20134;-80
2023/01/19 01:57:35;;;;;;;27.63;21.35;;;;;;;;;;4929499;29;20047;-80
2023/01/19 02:00:06;;;;;;;28.98;25.08;;;;;;;;;;4929268;29;20048;-80
2023/01/19 02:05:27;;;;;;;30.17;23.27;;;;;;;;;;4925449;29;20044;-80
2023/01/19 02:13:33;;;;;;;29.77;24.35;;;;;;;;;;4926670;29;20054;-80
2023/01/19 02:16:06;;;;;;;28.55;21.83;;;;;;;;;;4927285;29;20059;-80
2023/01/19 02:18:36;;;;;;;25.85;20.30;;;;;;;;;;4927583;29;20051;-80
2023/01/19 02:21:10;;;;;;;28.48;19.90;;;;;;;;;;4932956;29;20070;-80
2023/01/19 02:23:44;;;;;;;33.22;23.13;;;;;;;;;;4926840;29;20044;-80
2023/01/19 02:26:14;;;;;;;28.15;23.20;;;;;;;;;;4926040;29;20183;-80
2023/01/19 02:28:44;;;;;;;33.97;20.38;;;;;;;;;;4927505;29;20055;-80
2023/01/19 02:31:14;;;;;;;27.63;20.90;;;;;;;;;;4931186;29;20058;-80
2023/01/19 02:33:41;;;;;;;29.65;21.50;;;;;;;;;;4912011;29;20048;-80
2023/01/19 02:36:10;;;;;;;27.73;22.25;;;;;;;;;;4930659;29;20502;-80
2023/01/19 02:38:42;;;;;;;32.45;23.70;;;;;;;;;;4927025;29;20395;-80
2023/01/19 02:41:12;;;;;;;27.10;17.77;;;;;;;;;;4923513;29;20051;-80
2023/01/19 02:43:42;;;;;;;29.10;21.02;;;;;;;;;;4925919;29;20691;-80
2023/01/19 02:46:10;;;;;;;22.20;18.88;;;;;;;;;;4931487;29;20043;-80
2023/01/19 02:48:37;;;;;;;25.42;19.63;;;;;;;;;;4927560;29;20039;-80
2023/01/19 02:51:12;;;;;;;31.38;19.33;;;;;;;;;;4931604;29;20051;-81
2023/01/19 02:54:15;;;;;;;25.70;21.63;;;;;;;;;;4912582;29;20043;-80
2023/01/19 02:56:52;;;;;;;21.85;19.05;;;;;;;;;;4931065;29;20497;-80
2023/01/19 02:59:28;;;;;;;27.08;20.05;;;;;;;;;;4927641;29;20051;-80
2023/01/19 03:02:04;;;;;;;30.80;20.65;;;;;;;;;;4930529;29;20055;-80
2023/01/19 03:04:41;;;;;;;25.10;21.42;;;;;;;;;;4928728;29;20059;-80
2023/01/19 03:07:11;;;;;;;25.52;19.50;;;;;;;;;;4923350;29;20058;-81
2023/01/19 03:09:42;;;;;;;21.55;19.25;;;;;;;;;;4925781;29;20490;-80
2023/01/19 03:12:17;;;;;;;25.33;20.08;;;;;;;;;;4928493;29;20047;-80
2023/01/19 03:14:48;;;;;;;28.27;22.20;;;;;;;;;;4913941;29;20400;-80
2023/01/19 03:17:18;;;;;;;30.30;22.23;;;;;;;;;;4928997;29;20047;-81
2023/01/19 03:19:47;;;;;;;26.00;20.60;;;;;;;;;;4927528;29;20059;-80
2023/01/19 03:22:22;;;;;;;25.17;19.23;;;;;;;;;;4933864;29;20116;-80
2023/01/19 03:24:53;;;;;;;40.05;20.67;;;;;;;;;;4911665;29;20048;-81
2023/01/19 03:27:25;;;;;;;25.92;20.17;;;;;;;;;;4929038;29;20052;-80
2023/01/19 03:29:54;;;;;;;23.95;20.05;;;;;;;;;;4928422;29;20268;-80
2023/01/19 03:32:29;;;;;;;45.40;19.48;;;;;;;;;;4929773;29;20340;-81
2023/01/19 03:34:57;;;;;;;26.45;19.52;;;;;;;;;;4928876;29;20486;-81
2023/01/19 03:37:27;;;;;;;25.15;18.65;;;;;;;;;;4932482;29;20055;-80
2023/01/19 03:39:56;;;;;;;30.88;19.23;;;;;;;;;;4928126;29;20075;-81
2023/01/19 03:42:25;;;;;;;23.92;17.15;;;;;;;;;;4915096;29;20056;-81
2023/01/19 03:44:54;;;;;;;23.15;17.52;;;;;;;;;;4928249;29;20072;-81
2023/01/19 03:47:24;;;;;;;24.52;17.73;;;;;;;;;;4914085;29;20063;-80
2023/01/19 03:50:02;;;;;;;26.70;22.50;;;;;;;;;;4928398;29;20047;-80
2023/01/19 03:52:32;;;;;;;23.90;19.58;;;;;;;;;;4930383;29;20055;-80
2023/01/19 03:55:03;;;;;;;33.63;22.60;;;;;;;;;;4913600;29;20055;-80
2023/01/19 03:57:34;;;;;;;25.13;20.90;;;;;;;;;;4930167;29;20533;-81
2023/01/19 04:00:05;;;;;;;23.80;20.05;;;;;;;;;;4925274;29;20342;-81
2023/01/19 04:02:39;;;;;;;25.13;18.15;;;;;;;;;;4932414;29;20036;-80
2023/01/19 04:05:07;;;;;;;26.95;20.05;;;;;;;;;;4912189;29;20048;-81
2023/01/19 04:07:36;;;;;;;28.25;21.33;;;;;;;;;;4929070;29;20442;-80
2023/01/19 04:10:11;;;;;;;28.52;22.30;;;;;;;;;;4924563;29;20047;-80
2023/01/19 04:12:42;;;;;;;25.83;19.35;;;;;;;;;;4917254;29;20063;-81
2023/01/19 04:15:09;;;;;;;25.85;20.55;;;;;;;;;;4932422;29;20395;-80
2023/01/19 04:17:36;;;;;;;25.85;20.60;;;;;;;;;;4916644;29;20060;-81
2023/01/19 04:20:04;;;;;;;23.00;18.65;;;;;;;;;;4931191;29;20518;-80
2023/01/19 04:22:32;;;;;;;27.83;20.27;;;;;;;;;;4929629;29;20071;-80
2023/01/19 04:24:59;;;;;;;29.38;22.52;;;;;;;;;;4931033;29;20048;-81
2023/01/19 04:27:27;;;;;;;23.15;18.25;;;;;;;;;;4932855;29;20066;-81
2023/01/19 04:29:56;;;;;;;25.20;19.30;;;;;;;;;;4932362;29;20044;-81
2023/01/19 04:32:23;;;;;;;23.73;19.35;;;;;;;;;;4918977;29;20067;-81
2023/01/19 04:34:50;;;;;;;25.35;19.10;;;;;;;;;;4932102;29;20502;-81
2023/01/19 04:37:20;;;;;;;28.70;21.38;;;;;;;;;;4930986;29;20059;-81
2023/01/19 04:39:50;;;;;;;28.90;19.45;;;;;;;;;;4930586;29;20074;-80
2023/01/19 04:42:17;;;;;;;32.83;21.58;;;;;;;;;;4933299;29;20059;-81
2023/01/19 04:44:44;;;;;;;21.85;17.52;;;;;;;;;;4931782;29;20039;-81
2023/01/19 04:47:15;;;;;;;23.92;20.10;;;;;;;;;;4932764;29;20402;-81
2023/01/19 04:49:45;;;;;;;21.73;17.60;;;;;;;;;;4928646;29;20067;-81
2023/01/19 04:52:14;;;;;;;27.67;20.33;;;;;;;;;;4932311;29;20094;-81
2023/01/19 04:54:41;;;;;;;24.95;19.95;;;;;;;;;;4926563;29;20040;-81
2023/01/19 04:57:08;;;;;;;29.50;21.48;;;;;;;;;;4932121;29;20055;-81
2023/01/19 04:59:38;;;;;;;22.83;18.02;;;;;;;;;;4930056;29;20059;-81
2023/01/19 05:02:07;;;;;;;24.73;19.80;;;;;;;;;;4916808;29;20055;-81
2023/01/19 05:04:38;;;;;;;22.58;19.50;;;;;;;;;;4931915;29;20043;-81
2023/01/19 05:07:05;;;;;;;22.02;17.17;;;;;;;;;;4933867;29;20055;-81
2023/01/19 05:09:35;;;;;;;23.92;18.92;;;;;;;;;;4913088;29;20058;-81
2023/01/19 05:12:05;;;;;;;27.55;21.45;;;;;;;;;;4935070;29;20048;-81
2023/01/19 05:14:37;;;;;;;28.10;22.50;;;;;;;;;;4932585;29;20048;-81
2023/01/19 05:17:07;;;;;;;24.90;15.60;;;;;;;;;;4926593;29;20056;-81
2023/01/19 05:19:34;;;;;;;23.17;17.20;;;;;;;;;;4913956;29;20059;-80
2023/01/19 05:22:04;;;;;;;23.52;18.23;;;;;;;;;;4916255;29;20069;-81
2023/01/19 05:24:31;;;;;;;22.60;19.23;;;;;;;;;;4931400;29;20522;-81
2023/01/19 05:26:58;;;;;;;19.02;16.95;;;;;;;;;;4926425;29;20047;-80
2023/01/19 05:29:26;;;;;;;26.77;19.58;;;;;;;;;;4929391;29;20502;-81
2023/01/19 05:31:56;;;;;;;21.27;17.85;;;;;;;;;;4930865;29;20063;-81
2023/01/19 05:34:28;;;;;;;23.60;19.65;;;;;;;;;;4931897;29;20491;-81
2023/01/19 05:36:57;;;;;;;25.85;18.38;;;;;;;;;;4918477;29;20826;-81
2023/01/19 05:39:26;;;;;;;25.65;20.25;;;;;;;;;;4918035;29;20517;-81
2023/01/19 05:41:55;;;;;;;24.55;19.38;;;;;;;;;;4915303;29;21181;-81
2023/01/19 05:44:22;;;;;;;23.88;17.98;;;;;;;;;;4916788;29;20058;-80
2023/01/19 05:46:50;;;;;;;23.08;19.98;;;;;;;;;;4928399;28;20437;-81
2023/01/19 05:49:17;;;;;;;23.05;16.60;;;;;;;;;;4911000;29;20090;-80
2023/01/19 05:51:45;;;;;;;21.63;18.92;;;;;;;;;;4910896;29;20065;-80
2023/01/19 05:54:14;;;;;;;22.10;18.10;;;;;;;;;;4914670;29;20613;-80
2023/01/19 05:56:43;;;;;;;19.45;16.38;;;;;;;;;;4915046;29;20093;-81
2023/01/19 05:59:10;;;;;;;19.83;16.33;;;;;;;;;;4896507;29;20403;-78
2023/01/19 06:01:38;;;;;;;23.83;16.00;;;;;;;;;;4901820;29;20055;-79
2023/01/19 06:04:07;;;;;;;28.88;22.45;;;;;;;;;;4915925;29;20058;-79
2023/01/19 06:06:34;;;;;;;26.05;20.08;;;;;;;;;;4912457;29;20055;-79
2023/01/19 06:09:02;;;;;;;25.45;17.65;;;;;;;;;;4916913;29;20056;-79
2023/01/19 06:11:31;;;;;;;24.02;16.70;;;;;;;;;;4916762;29;22490;-79
2023/01/19 06:14:02;;;;;;;22.33;15.48;;;;;;;;;;4916965;29;20533;-79
2023/01/19 06:16:29;;;;;;;20.55;16.33;;;;;;;;;;4916529;29;20060;-78
2023/01/19 06:18:58;;;;;;;18.35;15.07;;;;;;;;;;4918270;29;20051;-79
2023/01/19 06:21:25;;;;;;;22.77;15.60;;;;;;;;;;4916653;29;20051;-79
2023/01/19 06:23:52;;;;;;;23.10;16.02;;;;;;;;;;4952866;28;20047;-78
2023/01/19 06:26:22;;;;;;;21.00;16.10;;;;;;;;;;4934496;29;20398;-79
2023/01/19 06:28:50;;;;;;;20.95;16.38;;;;;;;;;;4917624;29;20051;-79
2023/01/19 06:31:19;;;;;;;22.15;19.58;;;;;;;;;;4950195;28;20047;-79
2023/01/19 06:33:46;;;;;;;22.25;18.92;;;;;;;;;;4948567;29;20059;-79
2023/01/19 06:36:16;;;;;;;28.38;19.98;;;;;;;;;;4932948;29;20058;-79
2023/01/19 06:38:43;;;;;;;20.20;16.35;;;;;;;;;;4918889;29;20055;-79
2023/01/19 06:41:13;;;;;;;17.58;15.38;;;;;;;;;;4914654;29;20615;-79
2023/01/19 06:43:40;;;;;;;18.70;16.45;;;;;;;;;;4938599;29;20048;-79
2023/01/19 06:46:09;;;;;;;25.63;17.95;;;;;;;;;;4916592;29;20062;-79
2023/01/19 06:52:14;;;;;;;26.33;17.60;;;;;;;;;;6084021;23;20269;-88
2023/01/19 06:54:43;;;;;;;19.23;16.70;;;;;;;;;;4937527;29;20048;-89
2023/01/19 06:57:11;;;;;;;22.70;17.25;;;;;;;;;;4917005;29;20047;-86
2023/01/19 06:59:38;;;;;;;22.85;17.20;;;;;;;;;;4925420;29;20047;-86
2023/01/19 07:02:06;;;;;;;23.23;17.27;;;;;;;;;;4912587;29;20048;-86
2023/01/19 07:04:40;;;;;;;22.15;16.42;;;;;;;;;;4910219;29;20051;-88
2023/01/19 07:07:07;;;;;;;22.08;18.45;;;;;;;;;;4930620;29;20059;-87
2023/01/19 07:09:36;;;;;;;18.60;15.82;;;;;;;;;;4921448;29;20063;-87
2023/01/19 07:12:05;;;;;;;21.08;16.20;;;;;;;;;;4935701;29;20055;-87
2023/01/19 07:14:33;;;;;;;17.52;14.13;;;;;;;;;;4932706;29;20048;-87
2023/01/19 07:17:01;;;;;;;18.02;13.65;;;;;;;;;;4905632;29;20052;-87
2023/01/19 07:19:34;;;;;;;18.38;13.27;;;;;;;;;;4919913;29;20062;-87
2023/01/19 07:22:03;;;;;;;20.58;18.13;;;;;;;;;;4926396;29;20048;-88
2023/01/19 07:24:32;;;;;;;17.27;14.32;;;;;;;;;;4896142;29;20060;-87
2023/01/19 07:27:01;;;;;;;25.83;18.25;;;;;;;;;;4930302;29;20048;-88
2023/01/19 07:29:28;;;;;;;23.75;15.98;;;;;;;;;;4917849;29;20047;-88
2023/01/19 07:31:58;;;;;;;23.80;15.45;;;;;;;;;;4932232;29;20063;-87
2023/01/19 07:34:25;;;;;;;27.60;19.33;;;;;;;;;;4915422;29;20535;-89
2023/01/19 07:36:56;;;;;;;21.85;18.67;;;;;;;;;;4931356;29;20059;-87
2023/01/19 07:39:25;;;;;;;28.27;17.33;;;;;;;;;;4931090;29;20133;-87
2023/01/19 07:41:53;;;;;;;25.10;19.00;;;;;;;;;;4918133;29;20544;-87
2023/01/19 07:44:25;;;;;;;34.50;17.05;;;;;;;;;;4918380;29;20059;-89
2023/01/19 07:46:54;;;;;;;24.73;18.33;;;;;;;;;;4917931;29;20051;-87
2023/01/19 07:49:22;;;;;;;19.60;15.32;;;;;;;;;;4921264;29;20048;-86
2023/01/19 07:51:51;;;;;;;19.23;13.10;;;;;;;;;;4923222;29;20059;-88
2023/01/19 07:54:19;;;;;;;23.63;15.40;;;;;;;;;;4922611;29;20684;-87
2023/01/19 07:56:47;;;;;;;21.83;11.10;;;;;;;;;;4943990;29;20051;-86
2023/01/19 07:59:14;;;;;;;17.70;13.70;;;;;;;;;;4925156;29;20051;-87
2023/01/19 08:01:56;;;;;;;18.48;12.50;;;;;;;;;;4937104;29;20425;-88
2023/01/19 08:04:26;;;;;;;19.83;12.88;;;;;;;;;;4932965;29;20048;-88
2023/01/19 08:06:54;;;;;;;19.83;15.88;;;;;;;;;;4928911;29;20052;-88
2023/01/19 08:09:22;;;;;;;17.73;13.35;;;;;;;;;;4919497;29;20051;-88
2023/01/19 08:11:50;;;;;;;22.30;13.05;;;;;;;;;;4921720;29;20055;-88
2023/01/19 08:14:20;;;;;;;19.45;13.88;;;;;;;;;;4929618;29;20055;-88
2023/01/19 08:16:51;;;;;;;17.98;12.80;;;;;;;;;;4927928;29;20070;-85
2023/01/19 08:19:21;;;;;;;17.45;11.68;;;;;;;;;;4911762;29;20052;-87
2023/01/19 08:21:51;;;;;;;13.63;11.82;;;;;;;;;;4937325;29;20047;-88
2023/01/19 08:24:27;;;;;;;17.25;12.63;;;;;;;;;;4923134;29;20062;-88
2023/01/19 08:26:58;;;;;;;19.77;14.10;;;;;;;;;;4919576;29;21475;-87
2023/01/19 08:29:30;;;;;;;15.57;11.50;;;;;;;;;;4918405;29;20524;-87
2023/01/19 08:32:01;;;;;;;15.55;13.50;;;;;;;;;;4936326;29;20051;-87
2023/01/19 08:34:30;;;;;;;15.70;13.43;;;;;;;;;;4920143;29;20555;-87
2023/01/19 08:36:59;;;;;;;13.73;11.57;;;;;;;;;;4933348;29;20055;-87
2023/01/19 08:39:28;;;;;;;20.17;11.50;;;;;;;;;;4928350;29;20052;-87
2023/01/19 08:41:57;;;;;;;14.65;12.38;;;;;;;;;;4914122;29;20048;-90
2023/01/19 08:44:26;;;;;;;11.10;8.90;;;;;;;;;;4934167;29;20047;-88
2023/01/19 08:46:56;;;;;;;19.08;12.07;;;;;;;;;;4915045;29;20055;-88
2023/01/19 08:49:27;;;;;;;15.82;13.38;;;;;;;;;;4931313;29;20043;-88
2023/01/19 08:51:58;;;;;;;15.25;11.88;;;;;;;;;;4917092;29;20056;-88
2023/01/19 08:54:28;;;;;;;18.13;12.65;;;;;;;;;;4919476;29;20047;-88
2023/01/19 08:56:59;;;;;;;16.15;11.88;;;;;;;;;;4918402;29;20056;-87
2023/01/19 08:59:28;;;;;;;16.50;11.45;;;;;;;;;;4915529;29;20052;-87
2023/01/19 09:01:58;;;;;;;18.83;14.25;;;;;;;;;;4933632;29;20052;-88
2023/01/19 09:04:29;;;;;;;14.20;12.57;;;;;;;;;;4918627;29;20052;-88
2023/01/19 09:06:56;;;;;;;16.85;10.82;;;;;;;;;;4906167;29;20501;-87
2023/01/19 09:09:26;;;;;;;16.63;10.43;;;;;;;;;;4926648;29;20044;-87
2023/01/19 09:11:56;;;;;;;18.33;11.88;;;;;;;;;;4914957;29;22204;-87
2023/01/19 09:14:26;;;;;;;13.52;10.13;;;;;;;;;;4929553;29;20058;-87
2023/01/19 09:16:55;;;;;;;14.07;12.02;;;;;;;;;;4930135;29;20540;-87
2023/01/19 09:19:22;;;;;;;17.38;11.38;;;;;;;;;;4908223;29;20433;-87
2023/01/19 09:21:53;;;;;;;15.98;11.93;;;;;;;;;;4913919;29;20059;-87
2023/01/19 09:24:23;;;;;;;21.98;13.43;;;;;;;;;;4932460;29;20052;-86
2023/01/19 09:26:50;;;;;;;19.63;15.18;;;;;;;;;;4935988;29;20055;-86
2023/01/19 09:29:18;;;;;;;17.00;12.30;;;;;;;;;;4911197;29;20127;-86
2023/01/19 09:31:45;;;;;;;16.67;11.63;;;;;;;;;;4924005;29;20421;-86
2023/01/19 09:34:14;;;;;;;15.55;11.85;;;;;;;;;;4913257;29;20051;-87
2023/01/19 09:36:44;;;;;;;14.82;10.85;;;;;;;;;;4928653;29;20048;-86
2023/01/19 09:39:13;;;;;;;15.60;11.00;;;;;;;;;;4912661;29;20059;-86
2023/01/19 09:41:45;;;;;;;14.15;10.60;;;;;;;;;;4916068;29;20044;-88
2023/01/19 09:44:19;;;;;;;17.58;11.40;;;;;;;;;;4915257;29;20436;-87
2023/01/19 09:46:46;;;;;;;20.13;12.00;;;;;;;;;;4918046;29;20051;-87
2023/01/19 09:49:16;;;;;;;16.63;12.73;;;;;;;;;;4932378;29;20058;-87
2023/01/19 09:51:45;;;;;;;15.88;10.13;;;;;;;;;;4932963;29;20529;-88
2023/01/19 09:54:16;;;;;;;12.90;10.38;;;;;;;;;;4917176;29;20055;-88
2023/01/19 09:56:48;;;;;;;18.93;13.43;;;;;;;;;;4916823;29;20048;-89
2023/01/19 09:59:32;;;;;;;19.05;13.45;;;;;;;;;;4911370;29;20312;-87
2023/01/19 10:02:13;;;;;;;18.88;12.73;;;;;;;;;;4925848;29;20047;-87
2023/01/19 10:04:43;;;;;;;15.82;10.98;;;;;;;;;;4933183;29;20063;-87
2023/01/19 10:07:25;;;;;;;16.70;12.00;;;;;;;;;;4920516;29;20052;-88
2023/01/19 10:10:04;;;;;;;16.90;13.32;;;;;;;;;;4931133;29;20048;-87
2023/01/19 10:12:39;;;;;;;18.38;13.30;;;;;;;;;;4906428;29;20055;-86
2023/01/19 10:15:17;;;;;;;16.05;12.00;;;;;;;;;;4932656;29;20436;-86
2023/01/19 10:17:52;;;;;;;16.80;12.68;;;;;;;;;;4918185;29;20048;-88
2023/01/19 10:20:27;;;;;;;20.27;14.38;;;;;;;;;;4917479;29;20051;-87
2023/01/19 10:22:57;;;;;;;21.20;14.45;;;;;;;;;;4933250;29;20050;-88
2023/01/19 10:25:27;;;;;;;20.77;13.52;;;;;;;;;;4917446;29;20047;-89
2023/01/19 10:27:54;;;;;;;19.35;13.88;;;;;;;;;;4932459;29;20056;-87
2023/01/19 10:30:24;;;;;;;16.33;11.18;;;;;;;;;;4933429;29;20059;-88
2023/01/19 10:32:59;;;;;;;17.25;12.00;;;;;;;;;;4917309;29;20422;-89
2023/01/19 10:35:27;;;;;;;16.13;12.48;;;;;;;;;;4916368;29;20811;-87
2023/01/19 10:37:58;;;;;;;12.60;10.30;;;;;;;;;;4932303;29;20039;-87
2023/01/19 10:40:32;;;;;;;16.60;12.05;;;;;;;;;;4933246;29;20055;-88
2023/01/19 10:43:02;;;;;;;15.00;12.30;;;;;;;;;;4918659;29;20059;-89
2023/01/19 10:45:34;;;;;;;14.95;11.90;;;;;;;;;;4933026;29;20047;-89
2023/01/19 10:48:06;;;;;;;19.05;12.23;;;;;;;;;;4934810;29;20043;-88
2023/01/19 10:50:38;;;;;;;17.15;11.23;;;;;;;;;;4932089;29;20398;-89
2023/01/19 10:53:08;;;;;;;19.88;12.23;;;;;;;;;;4914672;29;20055;-88
2023/01/19 10:55:40;;;;;;;15.35;11.43;;;;;;;;;;4930977;29;20047;-90
2023/01/19 10:58:27;;;;;;;18.52;14.40;;;;;;;;;;4931066;29;20048;-88
2023/01/19 11:00:54;;;;;;;15.85;10.70;;;;;;;;;;4936400;29;20055;-88
2023/01/19 11:03:25;;;;;;;11.45;8.70;;;;;;;;;;4919272;29;20059;-89
2023/01/19 11:05:56;;;;;;;18.08;10.43;;;;;;;;;;4941965;29;20063;-88
2023/01/19 11:08:29;;;;;;;12.80;9.73;;;;;;;;;;4925641;29;20048;-88
2023/01/19 11:11:03;;;;;;;16.13;11.30;;;;;;;;;;4928347;29;20058;-88
2023/01/19 11:13:33;;;;;;;17.52;11.00;;;;;;;;;;4926267;29;20051;-88
2023/01/19 11:16:05;;;;;;;14.85;10.23;;;;;;;;;;4934449;29;20425;-87
2023/01/19 11:18:35;;;;;;;16.25;11.30;;;;;;;;;;4944676;29;20588;-88
2023/01/19 11:21:05;;;;;;;13.52;10.27;;;;;;;;;;4931955;29;20538;-88
2023/01/19 11:23:36;;;;;;;13.32;9.70;;;;;;;;;;4932198;29;20044;-88
2023/01/19 11:26:06;;;;;;;16.58;11.35;;;;;;;;;;4942847;29;20051;-89
2023/01/19 11:28:37;;;;;;;14.15;11.00;;;;;;;;;;4926280;29;20051;-88
2023/01/19 11:31:28;;;;;;;15.82;11.18;;;;;;;;;;4936442;29;20060;-88
2023/01/19 11:34:00;;;;;;;12.02;9.82;;;;;;;;;;4939982;29;20056;-90
2023/01/19 11:36:34;;;;;;;14.88;10.68;;;;;;;;;;4943341;29;20058;-87
2023/01/19 11:39:23;;;;;;;17.05;11.63;;;;;;;;;;4960110;28;20059;-88
2023/01/19 11:41:55;;;;;;;15.98;11.80;;;;;;;;;;4944497;29;20078;-90
2023/01/19 11:44:27;;;;;;;12.50;9.50;;;;;;;;;;4941616;29;20049;-90
2023/01/19 11:46:57;;;;;;;12.73;9.98;;;;;;;;;;4941846;29;20052;-89
2023/01/19 11:49:38;;;;;;;21.02;11.23;;;;;;;;;;4938657;29;20054;-90
2023/01/19 11:52:12;;;;;;;11.32;8.60;;;;;;;;;;4926706;29;20047;-89
2023/01/19 11:54:49;;;;;;;12.40;10.18;;;;;;;;;;4921609;29;20052;-89
2023/01/19 11:57:20;;;;;;;13.95;10.60;;;;;;;;;;4936876;29;20398;-89
2023/01/19 11:59:50;;;;;;;15.07;10.68;;;;;;;;;;4921882;29;20047;-88
2023/01/19 12:02:25;;;;;;;15.48;8.68;;;;;;;;;;4936263;29;20055;-88
2023/01/19 12:05:01;;;;;;;14.77;11.63;;;;;;;;;;4920985;29;20079;-89
2023/01/19 12:07:31;;;;;;;18.50;10.45;;;;;;;;;;4929929;29;20052;-89
2023/01/19 12:10:08;;;;;;;14.55;10.13;;;;;;;;;;4921142;29;20054;-89
2023/01/19 12:12:41;;;;;;;13.10;9.23;;;;;;;;;;4939213;29;20048;-89
2023/01/19 12:15:22;;;;;;;12.68;10.18;;;;;;;;;;4937225;29;20058;-89
2023/01/19 12:17:50;;;;;;;13.40;10.43;;;;;;;;;;4924418;29;20052;-89
2023/01/19 12:20:25;;;;;;;14.02;11.05;;;;;;;;;;4923582;29;20238;-89
2023/01/19 12:23:00;;;;;;;12.63;9.27;;;;;;;;;;4922746;29;20062;-88
2023/01/19 12:25:32;;;;;;;11.43;9.05;;;;;;;;;;4922730;29;20054;-88
2023/01/19 12:28:03;;;;;;;14.18;8.70;;;;;;;;;;4922931;29;20059;-87
2023/01/19 12:30:30;;;;;;;16.48;9.85;;;;;;;;;;4945420;29;20047;-89
2023/01/19 12:33:22;;;;;;;12.00;9.55;;;;;;;;;;4933386;29;20066;-88
2023/01/19 12:35:59;;;;;;;14.73;9.00;;;;;;;;;;4939359;29;20051;-89
2023/01/19 12:38:47;;;;;;;14.50;10.48;;;;;;;;;;4943642;29;20052;-91
2023/01/19 12:41:24;;;;;;;12.93;9.65;;;;;;;;;;4942573;29;20055;-90
2023/01/19 12:44:22;;;;;;;13.60;9.70;;;;;;;;;;4921157;29;20056;-90
2023/01/19 12:47:02;;;;;;;;;;;;;;;;;;;;;
2023/01/19 13:10:54;;;;;;;11.65;9.35;;;;;;;;;;5214667;23;20459;-85
2023/01/19 13:13:25;;;;;;;16.00;10.20;;;;;;;;;;4933774;29;20047;-86
2023/01/19 13:15:53;;;;;;;15.65;9.27;;;;;;;;;;4928332;29;20506;-86
2023/01/19 13:18:21;;;;;;;11.25;9.85;;;;;;;;;;4930240;29;20059;-86
2023/01/19 13:20:51;;;;;;;9.80;8.80;;;;;;;;;;4904485;29;20047;-86
2023/01/19 13:23:24;;;;;;;14.32;9.95;;;;;;;;;;4915559;29;20434;-85
2023/01/19 13:26:01;;;;;;;9.95;8.10;;;;;;;;;;4906052;29;20056;-85
2023/01/19 13:28:32;;;;;;;15.43;8.38;;;;;;;;;;4897559;29;20047;-85
2023/01/19 13:31:01;;;;;;;15.40;9.88;;;;;;;;;;4926732;29;20055;-85
2023/01/19 13:33:36;;;;;;;11.13;8.52;;;;;;;;;;4914409;29;20063;-85
2023/01/19 13:36:17;;;;;;;15.60;8.38;;;;;;;;;;4925975;29;20051;-85
2023/01/19 13:38:47;;;;;;;11.25;8.27;;;;;;;;;;4913030;29;20070;-86
2023/01/19 13:41:18;;;;;;;12.02;8.20;;;;;;;;;;4926184;29;20056;-85
2023/01/19 13:43:46;;;;;;;10.50;7.93;;;;;;;;;;4917809;29;20055;-85
2023/01/19 13:46:17;;;;;;;11.90;9.13;;;;;;;;;;4924531;29;20055;-85
2023/01/19 13:48:54;;;;;;;14.40;8.55;;;;;;;;;;4914392;29;20044;-85
2023/01/19 13:51:22;;;;;;;12.68;9.15;;;;;;;;;;4899442;29;20075;-85
2023/01/19 13:53:56;;;;;;;12.05;8.75;;;;;;;;;;4917641;29;20060;-86
2023/01/19 13:56:28;;;;;;;11.50;7.78;;;;;;;;;;4922832;29;20510;-85
2023/01/19 13:59:08;;;;;;;14.48;8.27;;;;;;;;;;4914554;29;20052;-85
2023/01/19 14:01:36;;;;;;;11.43;8.30;;;;;;;;;;4914417;29;20388;-85
2023/01/19 14:04:04;;;;;;;12.20;9.48;;;;;;;;;;4915524;29;20071;-86
2023/01/19 14:06:35;;;;;;;12.13;8.90;;;;;;;;;;4915091;29;20074;-85
2023/01/19 14:09:09;;;;;;;10.23;7.70;;;;;;;;;;4913994;29;20044;-86
2023/01/19 14:11:42;;;;;;;9.20;8.15;;;;;;;;;;4914774;29;20044;-85
2023/01/19 14:14:27;;;;;;;8.90;7.97;;;;;;;;;;4929591;29;20059;-85
2023/01/19 14:16:54;;;;;;;;;;;;;;;;;;4918502;29;20060;-85
2023/01/19 14:19:21;;;;;;;10.77;7.97;;;;;;;;;;4893731;29;19934;-85
2023/01/19 14:21:59;;;;;;;10.30;9.02;;;;;;;;;;4915155;29;20063;-85
2023/01/19 14:24:31;;;;;;;11.63;7.80;;;;;;;;;;4921885;29;20047;-85
2023/01/19 14:27:18;;;;;;;10.20;7.63;;;;;;;;;;4917117;29;20399;-85
2023/01/19 14:29:49;;;;;;;11.57;7.57;;;;;;;;;;4915336;29;20036;-85
2023/01/19 14:32:18;;;;;;;9.07;7.60;;;;;;;;;;4916087;29;20048;-85
2023/01/19 14:34:47;;;;;;;11.93;8.98;;;;;;;;;;4909388;29;20047;-85
2023/01/19 16:34:15;;;;;;;7.15;5.10;;;;;;;;;;4995581;23;20042;-84
2023/01/19 16:36:47;;;;;;;9.07;6.40;;;;;;;;;;4960760;28;20046;-84
2023/01/19 16:39:19;;;;;;;6.50;5.22;;;;;;;;;;4955222;28;20051;-84
2023/01/19 16:41:46;;;;;;;8.48;4.85;;;;;;;;;;4948651;29;20054;-84
2023/01/19 16:44:15;;;;;;;7.07;5.53;;;;;;;;;;4919063;29;20051;-84
2023/01/19 17:09:40;;;;;;;10.98;8.82;;;;;;;;;;5574147;23;20051;-85
2023/01/19 17:12:08;;;;;;;11.15;8.50;;;;;;;;;;4954023;29;20050;-85
2023/01/19 17:14:37;;;;;;;10.05;7.90;;;;;;;;;;4950325;28;20047;-85
2023/01/19 17:17:09;;;;;;;13.07;9.38;;;;;;;;;;4950594;29;20047;-85
2023/01/19 17:19:36;;;;;;;9.00;7.75;;;;;;;;;;4941488;29;20048;-85
2023/01/19 17:22:03;;;;;;;13.38;6.63;;;;;;;;;;4939335;29;20063;-85
2023/01/19 17:24:30;;;;;;;12.63;8.10;;;;;;;;;;4944046;29;20055;-85
2023/01/19 17:27:01;;;;;;;9.48;5.97;;;;;;;;;;4931109;29;20047;-85
2023/01/19 17:29:29;;;;;;;8.25;6.38;;;;;;;;;;4948414;29;20048;-85
2023/01/19 17:31:58;;;;;;;9.63;6.43;;;;;;;;;;4940362;29;20048;-84
2023/01/19 17:34:28;;;;;;;8.05;6.22;;;;;;;;;;4934607;29;20431;-85
2023/01/19 17:37:01;;;;;;;14.75;6.53;;;;;;;;;;4934177;28;20051;-86
2023/01/19 17:39:29;;;;;;;11.73;7.00;;;;;;;;;;4920568;29;20047;-86